Terminal Aerodrome Forecast
Issued by NWS

Home | Current Version | Previous Version | Text Only | Print | Product List | Glossary On
Versions: 1 2 3 4 5 6 7 8 9 10 11 12 13 14
000
FTUS44 KBMX 222300
TAFTCL
TAF
KTCL 222338Z 2300/2324 03009KT P6SM SKC
     FM230400 02003KT P6SM SKC
     FM231400 05009KT P6SM SKC=

USA.gov is the U.S. government's official web portal to all federal, state and local government web resources and services.